Terminal Aerodrome Forecast
Issued by NWS

Home | Current Version | Previous Version | Text Only | Print | Product List | Glossary On
Versions: 1 2 3 4 5 6 7 8 9 10 11 12
000
FTUS45 KBOI 261121
TAFBKE
TAF
KBKE 261121Z 2612/2712 VRB05KT P6SM SCT200
     FM262000 VRB06KT P6SM BKN120
     FM270000 33010KT P6SM VCTS BKN100CB OVC200
      TEMPO 2700/2703 VRB20G35KT 3SM -TSRA BLDU BKN070CB
     FM270300 32011KT P6SM BKN150=

USA.gov is the U.S. government's official web portal to all federal, state and local government web resources and services.